sensor_id;sensor_type;location;lat;lon;timestamp;temperature;humidity
27559;DHT22;15002;52.028;5.670;2024-02-26T00:01:23;7.40;99.90
27559;DHT22;15002;52.028;5.670;2024-02-26T00:03:49;7.10;99.90
27559;DHT22;15002;52.028;5.670;2024-02-26T00:06:15;7.20;99.90
27559;DHT22;15002;52.028;5.670;2024-02-26T00:08:41;7.50;99.90
27559;DHT22;15002;52.028;5.670;2024-02-26T00:11:06;7.50;99.90
27559;DHT22;15002;52.028;5.670;2024-02-26T00:13:32;7.60;99.90
27559;DHT22;15002;52.028;5.670;2024-02-26T00:15:58;7.30;99.90
27559;DHT22;15002;52.028;5.670;2024-02-26T00:18:23;7.30;99.90
27559;DHT22;15002;52.028;5.670;2024-02-26T00:20:49;7.30;99.90
27559;DHT22;15002;52.028;5.670;2024-02-26T00:23:15;7.20;99.90
27559;DHT22;15002;52.028;5.670;2024-02-26T00:25:41;7.30;99.90
27559;DHT22;15002;52.028;5.670;2024-02-26T00:28:09;7.00;99.90
27559;DHT22;15002;52.028;5.670;2024-02-26T00:30:35;7.10;99.90
27559;DHT22;15002;52.028;5.670;2024-02-26T00:33:01;7.30;99.90
27559;DHT22;15002;52.028;5.670;2024-02-26T00:35:26;7.50;99.90
27559;DHT22;15002;52.028;5.670;2024-02-26T00:37:52;7.50;99.90
27559;DHT22;15002;52.028;5.670;2024-02-26T00:40:18;7.60;99.90
27559;DHT22;15002;52.028;5.670;2024-02-26T00:42:44;7.70;99.90
27559;DHT22;15002;52.028;5.670;2024-02-26T00:45:12;7.60;99.90
27559;DHT22;15002;52.028;5.670;2024-02-26T00:47:37;7.40;99.90
27559;DHT22;15002;52.028;5.670;2024-02-26T00:50:03;7.40;99.90
27559;DHT22;15002;52.028;5.670;2024-02-26T00:52:29;7.30;99.90
27559;DHT22;15002;52.028;5.670;2024-02-26T00:54:55;7.30;99.90
27559;DHT22;15002;52.028;5.670;2024-02-26T00:57:20;7.20;99.90
27559;DHT22;15002;52.028;5.670;2024-02-26T00:59:46;7.10;99.90
27559;DHT22;15002;52.028;5.670;2024-02-26T01:02:11;7.20;99.90
27559;DHT22;15002;52.028;5.670;2024-02-26T01:04:37;7.10;99.90
27559;DHT22;15002;52.028;5.670;2024-02-26T01:07:03;6.90;99.90
27559;DHT22;15002;52.028;5.670;2024-02-26T01:09:28;7.10;99.90
27559;DHT22;15002;52.028;5.670;2024-02-26T01:11:54;7.10;99.90
27559;DHT22;15002;52.028;5.670;2024-02-26T01:14:19;7.10;99.90
27559;DHT22;15002;52.028;5.670;2024-02-26T01:16:45;6.90;99.90
27559;DHT22;15002;52.028;5.670;2024-02-26T01:19:11;6.90;99.90
27559;DHT22;15002;52.028;5.670;2024-02-26T01:21:36;7.10;99.90
27559;DHT22;15002;52.028;5.670;2024-02-26T01:24:02;7.00;99.90
27559;DHT22;15002;52.028;5.670;2024-02-26T01:26:27;6.90;99.90
27559;DHT22;15002;52.028;5.670;2024-02-26T01:28:53;7.10;99.90
27559;DHT22;15002;52.028;5.670;2024-02-26T01:31:20;7.10;99.90
27559;DHT22;15002;52.028;5.670;2024-02-26T01:33:45;7.00;99.90
27559;DHT22;15002;52.028;5.670;2024-02-26T01:36:11;7.00;99.90
27559;DHT22;15002;52.028;5.670;2024-02-26T01:38:37;7.30;99.90
27559;DHT22;15002;52.028;5.670;2024-02-26T01:41:02;7.20;99.90
27559;DHT22;15002;52.028;5.670;2024-02-26T01:43:28;7.40;99.90
27559;DHT22;15002;52.028;5.670;2024-02-26T01:45:54;7.60;99.90
27559;DHT22;15002;52.028;5.670;2024-02-26T01:48:21;7.40;99.90
27559;DHT22;15002;52.028;5.670;2024-02-26T01:50:46;7.40;99.90
27559;DHT22;15002;52.028;5.670;2024-02-26T01:53:12;7.20;99.90
27559;DHT22;15002;52.028;5.670;2024-02-26T01:55:38;7.20;99.90
27559;DHT22;15002;52.028;5.670;2024-02-26T01:58:05;7.30;99.90
27559;DHT22;15002;52.028;5.670;2024-02-26T02:00:31;7.60;99.90
27559;DHT22;15002;52.028;5.670;2024-02-26T02:02:57;7.50;99.90
27559;DHT22;15002;52.028;5.670;2024-02-26T02:05:23;7.10;99.90
27559;DHT22;15002;52.028;5.670;2024-02-26T02:07:50;7.30;99.90
27559;DHT22;15002;52.028;5.670;2024-02-26T02:10:16;7.10;99.90
27559;DHT22;15002;52.028;5.670;2024-02-26T02:12:43;7.30;99.90
27559;DHT22;15002;52.028;5.670;2024-02-26T02:15:09;7.30;99.90
27559;DHT22;15002;52.028;5.670;2024-02-26T02:17:35;7.40;99.90
27559;DHT22;15002;52.028;5.670;2024-02-26T02:20:01;7.50;99.90
27559;DHT22;15002;52.028;5.670;2024-02-26T02:22:27;7.50;99.90
27559;DHT22;15002;52.028;5.670;2024-02-26T02:24:53;7.70;99.90
27559;DHT22;15002;52.028;5.670;2024-02-26T02:27:19;7.80;99.90
27559;DHT22;15002;52.028;5.670;2024-02-26T02:29:45;7.90;99.90
27559;DHT22;15002;52.028;5.670;2024-02-26T02:32:11;8.00;99.90
27559;DHT22;15002;52.028;5.670;2024-02-26T02:34:37;8.20;99.90
27559;DHT22;15002;52.028;5.670;2024-02-26T02:37:03;8.00;99.90
27559;DHT22;15002;52.028;5.670;2024-02-26T02:39:29;7.70;99.90
27559;DHT22;15002;52.028;5.670;2024-02-26T02:41:54;7.60;99.90
27559;DHT22;15002;52.028;5.670;2024-02-26T02:44:20;7.40;99.90
27559;DHT22;15002;52.028;5.670;2024-02-26T02:46:45;7.40;99.90
27559;DHT22;15002;52.028;5.670;2024-02-26T02:49:11;7.50;99.90
27559;DHT22;15002;52.028;5.670;2024-02-26T02:51:37;7.50;99.90
27559;DHT22;15002;52.028;5.670;2024-02-26T02:54:03;7.70;99.90
27559;DHT22;15002;52.028;5.670;2024-02-26T02:56:29;7.60;99.90
27559;DHT22;15002;52.028;5.670;2024-02-26T02:58:54;7.30;99.90
27559;DHT22;15002;52.028;5.670;2024-02-26T03:01:20;7.30;99.90
27559;DHT22;15002;52.028;5.670;2024-02-26T03:03:45;7.40;99.90
27559;DHT22;15002;52.028;5.670;2024-02-26T03:06:11;7.20;99.90
27559;DHT22;15002;52.028;5.670;2024-02-26T03:08:37;7.20;99.90
27559;DHT22;15002;52.028;5.670;2024-02-26T03:11:05;7.00;99.90
27559;DHT22;15002;52.028;5.670;2024-02-26T03:13:30;7.20;99.90
27559;DHT22;15002;52.028;5.670;2024-02-26T03:15:56;7.40;99.90
27559;DHT22;15002;52.028;5.670;2024-02-26T03:18:22;7.50;99.90
27559;DHT22;15002;52.028;5.670;2024-02-26T03:20:49;7.30;99.90
27559;DHT22;15002;52.028;5.670;2024-02-26T03:23:15;7.40;99.90
27559;DHT22;15002;52.028;5.670;2024-02-26T03:25:44;7.60;99.90
27559;DHT22;15002;52.028;5.670;2024-02-26T03:28:12;7.40;99.90
27559;DHT22;15002;52.028;5.670;2024-02-26T03:30:38;7.50;99.90
27559;DHT22;15002;52.028;5.670;2024-02-26T03:33:03;7.40;99.90
27559;DHT22;15002;52.028;5.670;2024-02-26T03:35:29;7.70;99.90
27559;DHT22;15002;52.028;5.670;2024-02-26T03:37:55;7.50;99.90
27559;DHT22;15002;52.028;5.670;2024-02-26T03:40:21;7.60;99.90
27559;DHT22;15002;52.028;5.670;2024-02-26T03:42:46;7.40;99.90
27559;DHT22;15002;52.028;5.670;2024-02-26T03:45:12;7.10;99.90
27559;DHT22;15002;52.028;5.670;2024-02-26T03:47:38;7.20;99.90
27559;DHT22;15002;52.028;5.670;2024-02-26T03:50:07;7.20;99.90
27559;DHT22;15002;52.028;5.670;2024-02-26T03:52:33;7.30;99.90
27559;DHT22;15002;52.028;5.670;2024-02-26T03:54:59;7.40;99.90
27559;DHT22;15002;52.028;5.670;2024-02-26T03:57:25;7.20;99.90
27559;DHT22;15002;52.028;5.670;2024-02-26T03:59:50;7.20;99.90
27559;DHT22;15002;52.028;5.670;2024-02-26T04:02:16;7.40;99.90
27559;DHT22;15002;52.028;5.670;2024-02-26T04:04:42;7.40;99.90
27559;DHT22;15002;52.028;5.670;2024-02-26T04:07:07;7.20;99.90
27559;DHT22;15002;52.028;5.670;2024-02-26T04:09:33;7.40;99.90
27559;DHT22;15002;52.028;5.670;2024-02-26T04:11:59;7.30;99.90
27559;DHT22;15002;52.028;5.670;2024-02-26T04:14:24;7.20;99.90
27559;DHT22;15002;52.028;5.670;2024-02-26T04:16:50;7.30;99.90
27559;DHT22;15002;52.028;5.670;2024-02-26T04:19:17;7.20;99.90
27559;DHT22;15002;52.028;5.670;2024-02-26T04:21:43;7.10;99.90
27559;DHT22;15002;52.028;5.670;2024-02-26T04:24:09;7.10;99.90
27559;DHT22;15002;52.028;5.670;2024-02-26T04:26:35;7.10;99.90
27559;DHT22;15002;52.028;5.670;2024-02-26T04:29:00;7.20;99.90
27559;DHT22;15002;52.028;5.670;2024-02-26T04:31:26;6.90;99.90
27559;DHT22;15002;52.028;5.670;2024-02-26T04:33:52;7.10;99.90
27559;DHT22;15002;52.028;5.670;2024-02-26T04:36:17;7.40;99.90
27559;DHT22;15002;52.028;5.670;2024-02-26T04:38:44;7.30;99.90
27559;DHT22;15002;52.028;5.670;2024-02-26T04:41:09;7.30;99.90
27559;DHT22;15002;52.028;5.670;2024-02-26T04:43:36;7.50;99.90
27559;DHT22;15002;52.028;5.670;2024-02-26T04:46:10;7.70;99.90
27559;DHT22;15002;52.028;5.670;2024-02-26T04:48:36;7.40;99.90
27559;DHT22;15002;52.028;5.670;2024-02-26T04:51:02;7.40;99.90
27559;DHT22;15002;52.028;5.670;2024-02-26T04:53:28;7.40;99.90
27559;DHT22;15002;52.028;5.670;2024-02-26T04:55:54;7.50;99.90
27559;DHT22;15002;52.028;5.670;2024-02-26T04:58:20;7.40;99.90
27559;DHT22;15002;52.028;5.670;2024-02-26T05:00:45;7.40;99.90
27559;DHT22;15002;52.028;5.670;2024-02-26T05:03:11;7.30;99.90
27559;DHT22;15002;52.028;5.670;2024-02-26T05:05:42;7.20;99.90
27559;DHT22;15002;52.028;5.670;2024-02-26T05:08:08;7.20;99.90
27559;DHT22;15002;52.028;5.670;2024-02-26T05:10:33;7.20;99.90
27559;DHT22;15002;52.028;5.670;2024-02-26T05:13:00;7.20;99.90
27559;DHT22;15002;52.028;5.670;2024-02-26T05:15:25;7.40;99.90
27559;DHT22;15002;52.028;5.670;2024-02-26T05:17:51;7.50;99.90
27559;DHT22;15002;52.028;5.670;2024-02-26T05:20:18;7.30;99.90
27559;DHT22;15002;52.028;5.670;2024-02-26T05:22:43;7.00;99.90
27559;DHT22;15002;52.028;5.670;2024-02-26T05:25:09;7.00;99.90
27559;DHT22;15002;52.028;5.670;2024-02-26T05:27:35;7.00;99.90
27559;DHT22;15002;52.028;5.670;2024-02-26T05:30:00;7.20;99.90
27559;DHT22;15002;52.028;5.670;2024-02-26T05:32:26;7.30;99.90
27559;DHT22;15002;52.028;5.670;2024-02-26T05:34:51;7.20;99.90
27559;DHT22;15002;52.028;5.670;2024-02-26T05:37:17;7.10;99.90
27559;DHT22;15002;52.028;5.670;2024-02-26T05:39:43;6.80;99.90
27559;DHT22;15002;52.028;5.670;2024-02-26T05:42:08;6.90;99.90
27559;DHT22;15002;52.028;5.670;2024-02-26T05:44:34;7.10;99.90
27559;DHT22;15002;52.028;5.670;2024-02-26T05:47:00;6.80;99.90
27559;DHT22;15002;52.028;5.670;2024-02-26T05:49:25;7.10;99.90
27559;DHT22;15002;52.028;5.670;2024-02-26T05:51:51;7.10;99.90
27559;DHT22;15002;52.028;5.670;2024-02-26T05:54:17;7.10;99.90
27559;DHT22;15002;52.028;5.670;2024-02-26T05:56:42;7.10;99.90
27559;DHT22;15002;52.028;5.670;2024-02-26T05:59:08;7.20;99.90
27559;DHT22;15002;52.028;5.670;2024-02-26T06:01:34;7.20;99.90
27559;DHT22;15002;52.028;5.670;2024-02-26T06:03:59;7.00;99.90
27559;DHT22;15002;52.028;5.670;2024-02-26T06:06:25;6.90;99.90
27559;DHT22;15002;52.028;5.670;2024-02-26T06:08:51;7.10;99.90
27559;DHT22;15002;52.028;5.670;2024-02-26T06:11:16;7.20;99.90
27559;DHT22;15002;52.028;5.670;2024-02-26T06:13:43;7.20;99.90
27559;DHT22;15002;52.028;5.670;2024-02-26T06:16:08;7.50;99.90
27559;DHT22;15002;52.028;5.670;2024-02-26T06:18:34;7.30;99.90
27559;DHT22;15002;52.028;5.670;2024-02-26T06:21:00;7.20;99.90
27559;DHT22;15002;52.028;5.670;2024-02-26T06:23:26;7.20;99.90
27559;DHT22;15002;52.028;5.670;2024-02-26T06:25:52;7.20;99.90
27559;DHT22;15002;52.028;5.670;2024-02-26T06:28:18;7.30;99.90
27559;DHT22;15002;52.028;5.670;2024-02-26T06:30:43;7.20;99.90
27559;DHT22;15002;52.028;5.670;2024-02-26T06:33:09;7.10;99.90
27559;DHT22;15002;52.028;5.670;2024-02-26T06:35:36;7.10;99.90
27559;DHT22;15002;52.028;5.670;2024-02-26T06:38:01;7.10;99.90
27559;DHT22;15002;52.028;5.670;2024-02-26T06:40:27;7.10;99.90
27559;DHT22;15002;52.028;5.670;2024-02-26T06:42:53;7.10;99.90
27559;DHT22;15002;52.028;5.670;2024-02-26T06:45:19;6.80;99.90
27559;DHT22;15002;52.028;5.670;2024-02-26T06:47:45;6.90;99.90
27559;DHT22;15002;52.028;5.670;2024-02-26T06:50:13;7.00;99.90
27559;DHT22;15002;52.028;5.670;2024-02-26T06:52:39;6.80;99.90
27559;DHT22;15002;52.028;5.670;2024-02-26T06:55:05;6.90;99.90
27559;DHT22;15002;52.028;5.670;2024-02-26T06:57:33;7.00;99.90
27559;DHT22;15002;52.028;5.670;2024-02-26T06:59:59;7.00;99.90
27559;DHT22;15002;52.028;5.670;2024-02-26T07:02:25;7.10;99.90
27559;DHT22;15002;52.028;5.670;2024-02-26T07:04:50;7.30;99.90
27559;DHT22;15002;52.028;5.670;2024-02-26T07:07:16;7.20;99.90
27559;DHT22;15002;52.028;5.670;2024-02-26T07:09:44;7.20;99.90
27559;DHT22;15002;52.028;5.670;2024-02-26T07:12:09;7.00;99.90
27559;DHT22;15002;52.028;5.670;2024-02-26T07:14:35;7.00;99.90
27559;DHT22;15002;52.028;5.670;2024-02-26T07:17:03;7.00;99.90
27559;DHT22;15002;52.028;5.670;2024-02-26T07:19:28;7.20;99.90
27559;DHT22;15002;52.028;5.670;2024-02-26T07:21:54;7.10;99.90
27559;DHT22;15002;52.028;5.670;2024-02-26T07:24:21;7.00;99.90
27559;DHT22;15002;52.028;5.670;2024-02-26T07:26:46;7.10;99.90
27559;DHT22;15002;52.028;5.670;2024-02-26T07:29:12;7.20;99.90
27559;DHT22;15002;52.028;5.670;2024-02-26T07:31:37;7.00;99.90
27559;DHT22;15002;52.028;5.670;2024-02-26T07:34:03;7.00;99.90
27559;DHT22;15002;52.028;5.670;2024-02-26T07:36:29;7.10;99.90
27559;DHT22;15002;52.028;5.670;2024-02-26T07:38:54;7.00;99.90
27559;DHT22;15002;52.028;5.670;2024-02-26T07:41:20;7.00;99.90
27559;DHT22;15002;52.028;5.670;2024-02-26T07:43:46;6.80;99.90
27559;DHT22;15002;52.028;5.670;2024-02-26T07:46:12;6.80;99.90
27559;DHT22;15002;52.028;5.670;2024-02-26T07:48:38;6.80;99.90
27559;DHT22;15002;52.028;5.670;2024-02-26T07:51:04;6.90;99.90
27559;DHT22;15002;52.028;5.670;2024-02-26T07:53:30;7.10;99.90
27559;DHT22;15002;52.028;5.670;2024-02-26T07:55:56;7.10;99.90
27559;DHT22;15002;52.028;5.670;2024-02-26T07:58:23;6.80;99.90
27559;DHT22;15002;52.028;5.670;2024-02-26T08:00:49;6.80;99.90
27559;DHT22;15002;52.028;5.670;2024-02-26T08:03:15;6.90;99.90
27559;DHT22;15002;52.028;5.670;2024-02-26T08:05:41;6.80;99.90
27559;DHT22;15002;52.028;5.670;2024-02-26T08:08:08;6.50;99.90
27559;DHT22;15002;52.028;5.670;2024-02-26T08:10:34;6.90;99.90
27559;DHT22;15002;52.028;5.670;2024-02-26T08:13:00;6.80;99.90
27559;DHT22;15002;52.028;5.670;2024-02-26T08:15:34;6.60;99.90
27559;DHT22;15002;52.028;5.670;2024-02-26T08:18:01;6.60;99.90
27559;DHT22;15002;52.028;5.670;2024-02-26T08:20:30;6.60;99.90
27559;DHT22;15002;52.028;5.670;2024-02-26T08:22:56;6.80;99.90
27559;DHT22;15002;52.028;5.670;2024-02-26T08:25:23;7.00;99.90
27559;DHT22;15002;52.028;5.670;2024-02-26T08:27:48;6.70;99.90
27559;DHT22;15002;52.028;5.670;2024-02-26T08:30:15;6.70;99.90
27559;DHT22;15002;52.028;5.670;2024-02-26T08:32:43;6.60;99.90
27559;DHT22;15002;52.028;5.670;2024-02-26T08:35:09;6.70;99.90
27559;DHT22;15002;52.028;5.670;2024-02-26T08:37:35;6.80;99.90
27559;DHT22;15002;52.028;5.670;2024-02-26T08:40:00;6.80;99.90
27559;DHT22;15002;52.028;5.670;2024-02-26T08:42:26;6.80;99.90
27559;DHT22;15002;52.028;5.670;2024-02-26T08:44:52;6.90;99.90
27559;DHT22;15002;52.028;5.670;2024-02-26T08:47:20;6.90;99.90
27559;DHT22;15002;52.028;5.670;2024-02-26T08:49:46;6.70;99.90
27559;DHT22;15002;52.028;5.670;2024-02-26T08:52:11;6.90;99.90
27559;DHT22;15002;52.028;5.670;2024-02-26T08:54:37;6.90;99.90
27559;DHT22;15002;52.028;5.670;2024-02-26T08:57:03;6.90;99.90
27559;DHT22;15002;52.028;5.670;2024-02-26T08:59:29;6.70;99.90
27559;DHT22;15002;52.028;5.670;2024-02-26T09:01:55;6.80;99.90
27559;DHT22;15002;52.028;5.670;2024-02-26T09:04:20;6.70;99.90
27559;DHT22;15002;52.028;5.670;2024-02-26T09:06:46;6.80;99.90
27559;DHT22;15002;52.028;5.670;2024-02-26T09:09:12;6.90;99.90
27559;DHT22;15002;52.028;5.670;2024-02-26T09:11:38;7.20;99.90
27559;DHT22;15002;52.028;5.670;2024-02-26T09:14:03;7.20;99.90
27559;DHT22;15002;52.028;5.670;2024-02-26T09:16:30;7.10;99.90
27559;DHT22;15002;52.028;5.670;2024-02-26T09:18:56;7.00;99.90
27559;DHT22;15002;52.028;5.670;2024-02-26T09:21:22;6.80;99.90
27559;DHT22;15002;52.028;5.670;2024-02-26T09:23:52;6.80;99.90
27559;DHT22;15002;52.028;5.670;2024-02-26T09:26:18;6.90;99.90
27559;DHT22;15002;52.028;5.670;2024-02-26T09:28:44;6.90;99.90
27559;DHT22;15002;52.028;5.670;2024-02-26T09:31:10;6.80;99.90
27559;DHT22;15002;52.028;5.670;2024-02-26T09:33:36;6.80;99.90
27559;DHT22;15002;52.028;5.670;2024-02-26T09:36:03;6.80;99.90
27559;DHT22;15002;52.028;5.670;2024-02-26T09:38:29;6.80;99.90
27559;DHT22;15002;52.028;5.670;2024-02-26T09:40:57;6.80;99.90
27559;DHT22;15002;52.028;5.670;2024-02-26T09:43:23;6.70;99.90
27559;DHT22;15002;52.028;5.670;2024-02-26T09:45:53;6.90;99.90
27559;DHT22;15002;52.028;5.670;2024-02-26T09:48:19;6.70;99.90
27559;DHT22;15002;52.028;5.670;2024-02-26T09:50:46;6.70;99.90
27559;DHT22;15002;52.028;5.670;2024-02-26T09:53:12;6.80;99.90
27559;DHT22;15002;52.028;5.670;2024-02-26T09:55:40;7.00;99.90
27559;DHT22;15002;52.028;5.670;2024-02-26T09:58:06;7.00;99.90
27559;DHT22;15002;52.028;5.670;2024-02-26T10:00:32;7.20;99.90
27559;DHT22;15002;52.028;5.670;2024-02-26T10:03:06;7.20;99.90
27559;DHT22;15002;52.028;5.670;2024-02-26T10:05:35;7.10;99.90
27559;DHT22;15002;52.028;5.670;2024-02-26T10:08:04;6.90;99.90
27559;DHT22;15002;52.028;5.670;2024-02-26T10:10:30;6.90;99.90
27559;DHT22;15002;52.028;5.670;2024-02-26T10:12:59;6.90;99.90
27559;DHT22;15002;52.028;5.670;2024-02-26T10:15:25;7.20;99.90
27559;DHT22;15002;52.028;5.670;2024-02-26T10:17:51;7.10;99.90
27559;DHT22;15002;52.028;5.670;2024-02-26T10:20:17;7.00;99.90
27559;DHT22;15002;52.028;5.670;2024-02-26T10:22:44;6.80;99.90
27559;DHT22;15002;52.028;5.670;2024-02-26T10:25:10;6.70;99.90
27559;DHT22;15002;52.028;5.670;2024-02-26T10:27:35;6.60;99.90
27559;DHT22;15002;52.028;5.670;2024-02-26T10:30:26;6.60;99.90
27559;DHT22;15002;52.028;5.670;2024-02-26T10:32:52;6.70;99.90
27559;DHT22;15002;52.028;5.670;2024-02-26T10:35:18;6.80;99.90
27559;DHT22;15002;52.028;5.670;2024-02-26T10:37:46;6.90;99.90
27559;DHT22;15002;52.028;5.670;2024-02-26T10:40:15;6.60;99.90
27559;DHT22;15002;52.028;5.670;2024-02-26T10:42:42;6.60;99.90
27559;DHT22;15002;52.028;5.670;2024-02-26T10:45:09;6.70;99.90
27559;DHT22;15002;52.028;5.670;2024-02-26T10:47:36;6.80;99.90
27559;DHT22;15002;52.028;5.670;2024-02-26T10:50:05;6.60;99.90
27559;DHT22;15002;52.028;5.670;2024-02-26T10:52:36;6.70;99.90
27559;DHT22;15002;52.028;5.670;2024-02-26T10:55:03;6.70;99.90
27559;DHT22;15002;52.028;5.670;2024-02-26T10:57:34;6.70;99.90
27559;DHT22;15002;52.028;5.670;2024-02-26T11:00:02;6.60;99.90
27559;DHT22;15002;52.028;5.670;2024-02-26T11:02:34;6.70;99.90
27559;DHT22;15002;52.028;5.670;2024-02-26T11:05:04;6.80;99.90
27559;DHT22;15002;52.028;5.670;2024-02-26T11:07:31;7.00;99.90
27559;DHT22;15002;52.028;5.670;2024-02-26T11:09:59;7.10;99.90
27559;DHT22;15002;52.028;5.670;2024-02-26T11:12:27;7.30;99.90
27559;DHT22;15002;52.028;5.670;2024-02-26T11:14:55;7.10;99.90
27559;DHT22;15002;52.028;5.670;2024-02-26T11:17:28;7.10;99.90
27559;DHT22;15002;52.028;5.670;2024-02-26T11:19:57;7.00;99.90
27559;DHT22;15002;52.028;5.670;2024-02-26T11:22:24;7.00;99.90
27559;DHT22;15002;52.028;5.670;2024-02-26T11:24:52;7.00;99.90
27559;DHT22;15002;52.028;5.670;2024-02-26T11:27:22;6.90;99.90
27559;DHT22;15002;52.028;5.670;2024-02-26T11:29:51;6.90;99.90
27559;DHT22;15002;52.028;5.670;2024-02-26T11:32:18;7.10;99.90
27559;DHT22;15002;52.028;5.670;2024-02-26T11:34:44;7.20;99.90
27559;DHT22;15002;52.028;5.670;2024-02-26T11:37:19;7.40;99.90
27559;DHT22;15002;52.028;5.670;2024-02-26T11:39:45;7.30;99.90
27559;DHT22;15002;52.028;5.670;2024-02-26T11:42:14;7.40;99.90
27559;DHT22;15002;52.028;5.670;2024-02-26T11:44:40;7.20;99.90
27559;DHT22;15002;52.028;5.670;2024-02-26T11:49:36;7.10;99.90
27559;DHT22;15002;52.028;5.670;2024-02-26T11:52:05;7.00;99.90
27559;DHT22;15002;52.028;5.670;2024-02-26T11:57:28;7.20;99.90
27559;DHT22;15002;52.028;5.670;2024-02-26T12:00:11;7.30;99.90
27559;DHT22;15002;52.028;5.670;2024-02-26T12:02:50;7.20;99.90
27559;DHT22;15002;52.028;5.670;2024-02-26T12:05:23;7.30;99.90
27559;DHT22;15002;52.028;5.670;2024-02-26T12:07:53;6.90;99.90
27559;DHT22;15002;52.028;5.670;2024-02-26T12:10:25;6.80;99.90
27559;DHT22;15002;52.028;5.670;2024-02-26T12:15:23;7.20;99.90
27559;DHT22;15002;52.028;5.670;2024-02-26T12:17:49;7.30;99.90
27559;DHT22;15002;52.028;5.670;2024-02-26T12:20:17;7.40;99.90
27559;DHT22;15002;52.028;5.670;2024-02-26T12:22:46;7.30;99.90
27559;DHT22;15002;52.028;5.670;2024-02-26T12:25:13;7.40;99.90
27559;DHT22;15002;52.028;5.670;2024-02-26T12:27:39;7.30;99.90
27559;DHT22;15002;52.028;5.670;2024-02-26T12:30:05;7.30;99.90
27559;DHT22;15002;52.028;5.670;2024-02-26T12:32:32;7.10;99.90
27559;DHT22;15002;52.028;5.670;2024-02-26T12:34:58;7.10;99.90
27559;DHT22;15002;52.028;5.670;2024-02-26T12:37:24;7.10;99.90
27559;DHT22;15002;52.028;5.670;2024-02-26T12:39:50;7.10;99.90
27559;DHT22;15002;52.028;5.670;2024-02-26T12:42:15;7.10;99.90
27559;DHT22;15002;52.028;5.670;2024-02-26T12:44:41;7.20;99.90
27559;DHT22;15002;52.028;5.670;2024-02-26T12:47:07;7.20;99.90
27559;DHT22;15002;52.028;5.670;2024-02-26T12:49:33;7.60;99.90
27559;DHT22;15002;52.028;5.670;2024-02-26T12:51:59;7.70;99.90
27559;DHT22;15002;52.028;5.670;2024-02-26T12:54:31;7.70;99.90
27559;DHT22;15002;52.028;5.670;2024-02-26T12:56:59;7.80;99.90
27559;DHT22;15002;52.028;5.670;2024-02-26T12:59:26;7.80;99.90
27559;DHT22;15002;52.028;5.670;2024-02-26T13:01:52;7.50;99.90
27559;DHT22;15002;52.028;5.670;2024-02-26T13:04:18;7.60;99.90
27559;DHT22;15002;52.028;5.670;2024-02-26T13:06:44;7.50;99.90
27559;DHT22;15002;52.028;5.670;2024-02-26T13:09:13;7.50;99.90
27559;DHT22;15002;52.028;5.670;2024-02-26T13:11:42;7.50;99.90
27559;DHT22;15002;52.028;5.670;2024-02-26T13:14:08;7.70;99.90
27559;DHT22;15002;52.028;5.670;2024-02-26T13:16:44;7.60;99.90
27559;DHT22;15002;52.028;5.670;2024-02-26T13:19:10;7.50;99.90
27559;DHT22;15002;52.028;5.670;2024-02-26T13:21:36;7.80;99.90
27559;DHT22;15002;52.028;5.670;2024-02-26T13:24:01;7.90;99.90
27559;DHT22;15002;52.028;5.670;2024-02-26T13:26:27;8.20;99.90
27559;DHT22;15002;52.028;5.670;2024-02-26T13:29:03;8.10;99.90
27559;DHT22;15002;52.028;5.670;2024-02-26T13:31:29;8.00;99.90
27559;DHT22;15002;52.028;5.670;2024-02-26T13:33:54;7.80;99.90
27559;DHT22;15002;52.028;5.670;2024-02-26T13:36:22;7.80;99.90
27559;DHT22;15002;52.028;5.670;2024-02-26T13:38:55;7.70;99.90
27559;DHT22;15002;52.028;5.670;2024-02-26T13:41:21;7.80;99.90
27559;DHT22;15002;52.028;5.670;2024-02-26T13:43:47;8.00;99.90
27559;DHT22;15002;52.028;5.670;2024-02-26T13:46:14;8.00;99.90
27559;DHT22;15002;52.028;5.670;2024-02-26T13:48:43;7.90;99.90
27559;DHT22;15002;52.028;5.670;2024-02-26T13:51:09;7.80;99.90
27559;DHT22;15002;52.028;5.670;2024-02-26T13:53:35;8.00;99.90
27559;DHT22;15002;52.028;5.670;2024-02-26T13:56:01;7.80;99.90
27559;DHT22;15002;52.028;5.670;2024-02-26T13:58:27;7.70;99.90
27559;DHT22;15002;52.028;5.670;2024-02-26T14:00:53;7.70;99.90
27559;DHT22;15002;52.028;5.670;2024-02-26T14:03:22;8.00;99.90
27559;DHT22;15002;52.028;5.670;2024-02-26T14:05:48;7.60;99.90
27559;DHT22;15002;52.028;5.670;2024-02-26T14:08:14;7.50;99.90
27559;DHT22;15002;52.028;5.670;2024-02-26T14:10:40;7.70;99.90
27559;DHT22;15002;52.028;5.670;2024-02-26T14:13:06;7.80;99.90
27559;DHT22;15002;52.028;5.670;2024-02-26T14:15:32;7.80;99.90
27559;DHT22;15002;52.028;5.670;2024-02-26T14:17:58;7.40;99.90
27559;DHT22;15002;52.028;5.670;2024-02-26T14:20:24;7.40;99.90
27559;DHT22;15002;52.028;5.670;2024-02-26T14:22:51;7.60;99.90
27559;DHT22;15002;52.028;5.670;2024-02-26T14:25:19;7.50;99.90
27559;DHT22;15002;52.028;5.670;2024-02-26T14:27:45;7.60;99.90
27559;DHT22;15002;52.028;5.670;2024-02-26T14:30:12;8.00;99.90
27559;DHT22;15002;52.028;5.670;2024-02-26T14:32:37;8.30;99.90
27559;DHT22;15002;52.028;5.670;2024-02-26T14:35:09;8.10;99.90
27559;DHT22;15002;52.028;5.670;2024-02-26T14:37:36;8.30;99.90
27559;DHT22;15002;52.028;5.670;2024-02-26T14:40:02;8.30;99.90
27559;DHT22;15002;52.028;5.670;2024-02-26T14:42:29;8.20;99.90
27559;DHT22;15002;52.028;5.670;2024-02-26T14:44:54;8.10;99.90
27559;DHT22;15002;52.028;5.670;2024-02-26T14:47:20;8.00;99.90
27559;DHT22;15002;52.028;5.670;2024-02-26T14:49:46;8.30;99.90
27559;DHT22;15002;52.028;5.670;2024-02-26T14:52:14;8.20;99.90
27559;DHT22;15002;52.028;5.670;2024-02-26T14:54:39;8.20;99.90
27559;DHT22;15002;52.028;5.670;2024-02-26T14:57:05;8.20;99.90
27559;DHT22;15002;52.028;5.670;2024-02-26T14:59:32;8.10;99.90
27559;DHT22;15002;52.028;5.670;2024-02-26T15:01:58;8.20;99.90
27559;DHT22;15002;52.028;5.670;2024-02-26T15:04:27;8.40;99.90
27559;DHT22;15002;52.028;5.670;2024-02-26T15:06:52;8.40;99.90
27559;DHT22;15002;52.028;5.670;2024-02-26T15:09:18;8.60;99.90
27559;DHT22;15002;52.028;5.670;2024-02-26T15:11:44;8.50;99.90
27559;DHT22;15002;52.028;5.670;2024-02-26T15:14:10;8.50;99.90
27559;DHT22;15002;52.028;5.670;2024-02-26T15:16:36;8.50;99.90
27559;DHT22;15002;52.028;5.670;2024-02-26T15:19:02;8.30;99.90
27559;DHT22;15002;52.028;5.670;2024-02-26T15:21:29;8.10;99.90
27559;DHT22;15002;52.028;5.670;2024-02-26T15:23:55;8.00;99.90
27559;DHT22;15002;52.028;5.670;2024-02-26T15:26:21;7.90;99.90
27559;DHT22;15002;52.028;5.670;2024-02-26T15:28:47;8.00;99.90
27559;DHT22;15002;52.028;5.670;2024-02-26T15:31:15;8.20;99.90
27559;DHT22;15002;52.028;5.670;2024-02-26T15:33:41;8.10;99.90
27559;DHT22;15002;52.028;5.670;2024-02-26T15:36:07;8.00;99.90
27559;DHT22;15002;52.028;5.670;2024-02-26T15:38:36;8.10;99.90
27559;DHT22;15002;52.028;5.670;2024-02-26T15:41:01;8.40;99.90
27559;DHT22;15002;52.028;5.670;2024-02-26T15:43:27;8.20;99.90
27559;DHT22;15002;52.028;5.670;2024-02-26T15:45:52;8.20;99.90
27559;DHT22;15002;52.028;5.670;2024-02-26T15:48:18;8.40;99.90